createdAt,value
2017-09-27T00:00:53.867Z,11.90
2017-09-27T00:03:21.445Z,12.00
2017-09-27T00:05:49.850Z,12.00
2017-09-27T00:08:17.393Z,12.00
2017-09-27T00:10:44.913Z,11.90
2017-09-27T00:13:13.227Z,12.00
2017-09-27T00:15:40.799Z,11.90
2017-09-27T00:18:08.344Z,11.90
2017-09-27T00:20:36.104Z,11.80
2017-09-27T00:23:03.636Z,11.80
2017-09-27T00:25:31.180Z,11.80
2017-09-27T00:27:58.736Z,11.80
2017-09-27T00:30:26.294Z,11.70
2017-09-27T00:32:53.850Z,11.70
2017-09-27T00:35:21.393Z,11.60
2017-09-27T00:37:48.934Z,11.50
2017-09-27T00:40:17.248Z,11.30
2017-09-27T00:42:44.850Z,11.30
2017-09-27T00:45:12.390Z,11.30
2017-09-27T00:47:39.949Z,11.30
2017-09-27T00:50:07.478Z,11.30
2017-09-27T00:52:35.772Z,11.30
2017-09-27T00:55:03.325Z,11.20
2017-09-27T00:57:31.643Z,11.20
2017-09-27T00:59:59.211Z,11.20
2017-09-27T01:02:26.742Z,11.30
2017-09-27T01:04:55.043Z,11.30
2017-09-27T01:07:23.439Z,11.30
2017-09-27T01:09:50.979Z,11.30
2017-09-27T01:12:18.535Z,11.40
2017-09-27T01:14:46.085Z,11.40
2017-09-27T01:17:14.374Z,11.50
2017-09-27T01:19:42.693Z,11.50
2017-09-27T01:22:10.249Z,11.50
2017-09-27T01:24:37.824Z,11.60
2017-09-27T01:27:05.412Z,11.60
2017-09-27T01:29:32.953Z,11.60
2017-09-27T01:32:01.289Z,11.60
2017-09-27T01:34:29.623Z,11.60
2017-09-27T01:36:57.202Z,11.60
2017-09-27T01:39:24.771Z,11.60
2017-09-27T01:41:52.307Z,11.60
2017-09-27T01:44:20.137Z,11.60
2017-09-27T01:46:47.668Z,11.70
2017-09-27T01:49:15.232Z,11.70
2017-09-27T01:51:42.762Z,11.60
2017-09-27T01:54:10.320Z,11.60
2017-09-27T01:56:37.909Z,11.60
2017-09-27T01:59:05.459Z,11.60
2017-09-27T02:01:33.050Z,11.70
2017-09-27T02:04:00.599Z,11.70
2017-09-27T02:06:28.141Z,11.60
2017-09-27T02:08:56.687Z,11.60
2017-09-27T02:11:24.234Z,11.70
2017-09-27T02:13:51.782Z,11.60
2017-09-27T02:16:19.318Z,11.60
2017-09-27T02:18:46.867Z,11.50
2017-09-27T02:21:15.195Z,11.50
2017-09-27T02:23:42.752Z,11.50
2017-09-27T02:26:10.311Z,11.40
2017-09-27T02:28:38.649Z,11.30
2017-09-27T02:31:06.941Z,11.30
2017-09-27T02:33:35.248Z,11.30
2017-09-27T02:36:02.816Z,11.30
2017-09-27T02:38:30.365Z,11.30
2017-09-27T02:40:57.954Z,11.30
2017-09-27T02:43:25.511Z,11.30
2017-09-27T02:45:53.046Z,11.30
2017-09-27T02:48:21.332Z,11.40
2017-09-27T02:50:49.712Z,11.40
2017-09-27T02:53:18.032Z,11.40
2017-09-27T02:55:45.634Z,11.30
2017-09-27T02:58:13.190Z,11.40
2017-09-27T03:00:40.762Z,11.40
2017-09-27T03:03:08.677Z,11.40
2017-09-27T03:05:36.232Z,11.50
2017-09-27T03:08:04.539Z,11.50
2017-09-27T03:10:32.480Z,11.50
2017-09-27T03:13:00.805Z,11.50
2017-09-27T03:15:28.369Z,11.40
2017-09-27T03:17:55.904Z,11.50
2017-09-27T03:20:23.443Z,11.50
2017-09-27T03:22:51.778Z,11.50
2017-09-27T03:25:19.313Z,11.50
2017-09-27T03:27:46.888Z,11.50
2017-09-27T03:30:14.794Z,11.60
2017-09-27T03:32:42.350Z,11.50
2017-09-27T03:35:09.915Z,11.60
2017-09-27T03:37:37.475Z,11.60
2017-09-27T03:40:05.031Z,11.60
2017-09-27T03:42:32.603Z,11.60
2017-09-27T03:45:00.127Z,11.60
2017-09-27T03:47:28.415Z,11.60
2017-09-27T03:49:55.987Z,11.60
2017-09-27T03:52:23.539Z,11.60
2017-09-27T03:54:51.097Z,11.50
2017-09-27T03:57:19.435Z,11.40
2017-09-27T03:59:46.981Z,11.40
2017-09-27T04:02:14.569Z,11.50
2017-09-27T04:04:42.118Z,11.50
2017-09-27T04:07:09.645Z,11.50
2017-09-27T04:09:37.215Z,11.50
2017-09-27T04:12:04.778Z,11.60
2017-09-27T04:14:32.319Z,11.60
2017-09-27T04:17:00.647Z,11.60
2017-09-27T04:19:28.185Z,11.60
2017-09-27T04:21:56.475Z,11.60
2017-09-27T04:24:24.058Z,11.60
2017-09-27T04:26:51.643Z,11.60
2017-09-27T04:29:19.209Z,11.60
2017-09-27T04:31:46.789Z,11.60
2017-09-27T04:34:14.340Z,11.60
2017-09-27T04:36:41.901Z,11.70
2017-09-27T04:39:09.502Z,11.60
2017-09-27T04:41:37.804Z,11.50
2017-09-27T04:44:05.452Z,11.50
2017-09-27T04:46:33.786Z,11.50
2017-09-27T04:49:01.329Z,11.50
2017-09-27T04:51:28.898Z,11.50
2017-09-27T04:53:56.461Z,11.60
2017-09-27T04:56:24.002Z,11.60
2017-09-27T04:58:52.300Z,11.60
2017-09-27T05:01:20.856Z,11.60
2017-09-27T05:03:49.171Z,11.70
2017-09-27T05:06:16.771Z,11.70
2017-09-27T05:08:44.345Z,11.60
2017-09-27T05:11:11.889Z,11.60
2017-09-27T05:13:39.461Z,11.60
2017-09-27T05:16:07.010Z,11.60
2017-09-27T05:18:34.580Z,11.60
2017-09-27T05:21:02.118Z,11.70
2017-09-27T05:23:29.677Z,11.70
2017-09-27T05:25:57.218Z,11.70
2017-09-27T05:28:25.553Z,11.80
2017-09-27T05:30:54.922Z,11.70
2017-09-27T05:33:23.215Z,11.80
2017-09-27T05:35:50.780Z,11.80
2017-09-27T05:38:18.326Z,11.80
2017-09-27T05:40:46.653Z,11.90
2017-09-27T05:43:14.233Z,11.80
2017-09-27T05:45:41.776Z,11.90
2017-09-27T05:48:09.312Z,11.90
2017-09-27T05:50:36.886Z,11.90
2017-09-27T05:53:04.416Z,11.90
2017-09-27T05:55:31.968Z,11.90
2017-09-27T05:57:59.572Z,11.90
2017-09-27T06:00:27.929Z,12.00
2017-09-27T06:02:55.446Z,12.00
2017-09-27T06:05:23.131Z,12.00
2017-09-27T06:07:50.672Z,12.00
2017-09-27T06:10:18.259Z,12.10
2017-09-27T06:12:45.840Z,12.20
2017-09-27T06:15:13.385Z,12.30
2017-09-27T06:17:40.939Z,12.40
2017-09-27T06:20:08.512Z,12.40
2017-09-27T06:22:36.069Z,12.40
2017-09-27T06:25:03.634Z,12.40
2017-09-27T06:27:31.195Z,12.60
2017-09-27T06:29:58.758Z,12.80
2017-09-27T06:32:26.312Z,12.90
2017-09-27T06:34:53.874Z,13.10
2017-09-27T06:37:21.429Z,13.20
2017-09-27T06:39:48.988Z,13.40
2017-09-27T06:42:16.561Z,13.50
2017-09-27T06:44:44.126Z,13.50
2017-09-27T06:47:11.660Z,13.60
2017-09-27T06:49:39.991Z,13.60
2017-09-27T06:52:07.584Z,13.60
2017-09-27T06:54:35.130Z,13.60
2017-09-27T06:57:02.720Z,13.60
2017-09-27T06:59:30.296Z,13.60
2017-09-27T07:01:57.836Z,13.60
2017-09-27T07:04:25.390Z,13.70
2017-09-27T07:06:52.940Z,13.70
2017-09-27T07:09:20.614Z,13.70
2017-09-27T07:11:48.176Z,13.90
2017-09-27T07:14:15.741Z,13.90
2017-09-27T07:16:43.322Z,13.90
2017-09-27T07:19:10.886Z,14.10
2017-09-27T07:21:38.421Z,14.20
2017-09-27T07:24:05.966Z,14.10
2017-09-27T07:26:33.549Z,14.10
2017-09-27T07:29:01.095Z,13.90
2017-09-27T07:31:28.689Z,13.90
2017-09-27T07:33:56.261Z,14.00
2017-09-27T07:36:23.871Z,14.20
2017-09-27T07:38:52.196Z,14.30
2017-09-27T07:41:19.784Z,14.20
2017-09-27T07:43:47.334Z,14.20
2017-09-27T07:46:14.904Z,14.20
2017-09-27T07:48:42.455Z,14.30
2017-09-27T07:51:10.004Z,14.30
2017-09-27T07:53:37.599Z,14.20
2017-09-27T07:56:05.174Z,14.20
2017-09-27T07:58:32.741Z,14.30
2017-09-27T08:01:00.270Z,14.40
2017-09-27T08:03:27.834Z,14.50
2017-09-27T08:05:55.439Z,14.50
2017-09-27T08:08:23.018Z,14.70
2017-09-27T08:10:51.326Z,14.70
2017-09-27T08:13:19.672Z,14.90
2017-09-27T08:15:47.227Z,14.80
2017-09-27T08:18:14.800Z,15.00
2017-09-27T08:20:42.354Z,15.10
2017-09-27T08:23:09.936Z,15.30
2017-09-27T08:25:37.515Z,15.60
2017-09-27T08:28:05.094Z,15.80
2017-09-27T08:30:32.667Z,16.10
2017-09-27T08:33:00.257Z,16.40
2017-09-27T08:35:27.817Z,16.60
2017-09-27T08:37:55.368Z,17.00
2017-09-27T08:40:23.027Z,17.30
2017-09-27T08:42:51.349Z,18.30
2017-09-27T08:45:18.912Z,18.30
2017-09-27T08:47:46.510Z,18.60
2017-09-27T08:50:14.057Z,18.30
2017-09-27T08:52:41.623Z,18.60
2017-09-27T08:55:09.183Z,18.90
2017-09-27T08:57:36.719Z,19.30
2017-09-27T09:00:04.263Z,19.50
2017-09-27T09:02:32.609Z,18.80
2017-09-27T09:05:00.209Z,18.80
2017-09-27T09:07:28.550Z,18.90
2017-09-27T09:09:56.097Z,18.90
2017-09-27T09:12:23.627Z,19.10
2017-09-27T09:14:51.197Z,19.50
2017-09-27T09:17:18.890Z,19.90
2017-09-27T09:19:46.433Z,20.10
2017-09-27T09:22:15.017Z,20.40
2017-09-27T09:24:42.575Z,20.60
2017-09-27T09:27:10.902Z,20.40
2017-09-27T09:29:38.485Z,20.40
2017-09-27T09:32:06.383Z,20.30
2017-09-27T09:34:35.111Z,20.20
2017-09-27T09:37:02.677Z,20.20
2017-09-27T09:39:30.226Z,20.20
2017-09-27T09:41:57.813Z,20.10
2017-09-27T09:44:25.372Z,20.10
2017-09-27T09:46:52.940Z,20.40
2017-09-27T09:49:20.522Z,20.90
2017-09-27T09:51:48.101Z,21.40
2017-09-27T09:54:15.643Z,22.30
2017-09-27T09:56:43.208Z,23.60
2017-09-27T09:59:10.722Z,24.60
2017-09-27T10:01:39.030Z,25.20
2017-09-27T10:04:06.593Z,25.20
2017-09-27T10:06:34.157Z,25.20
2017-09-27T10:09:01.726Z,24.80
2017-09-27T10:11:29.317Z,24.70
2017-09-27T10:13:56.854Z,24.70
2017-09-27T10:16:24.396Z,25.40
2017-09-27T10:18:52.735Z,25.10
2017-09-27T10:21:20.287Z,25.10
2017-09-27T10:23:47.851Z,25.00
2017-09-27T10:26:15.435Z,25.10
2017-09-27T10:28:42.971Z,24.80
2017-09-27T10:31:10.524Z,24.50
2017-09-27T10:33:38.101Z,24.30
2017-09-27T10:36:05.659Z,24.70
2017-09-27T10:38:33.245Z,25.10
2017-09-27T10:41:00.811Z,26.00
2017-09-27T10:43:28.526Z,26.70
2017-09-27T10:45:56.090Z,26.30
2017-09-27T10:48:24.447Z,26.30
2017-09-27T10:50:52.788Z,26.40
2017-09-27T10:53:20.345Z,26.40
2017-09-27T10:55:47.919Z,26.70
2017-09-27T10:58:15.463Z,27.10
2017-09-27T11:00:43.001Z,27.60
2017-09-27T11:03:12.310Z,29.40
2017-09-27T11:05:40.629Z,28.90
2017-09-27T11:08:08.182Z,28.90
2017-09-27T11:10:35.739Z,28.50
2017-09-27T11:13:03.303Z,28.60
2017-09-27T11:15:30.868Z,28.10
2017-09-27T11:17:59.650Z,29.30
2017-09-27T11:20:27.969Z,29.20
2017-09-27T11:22:55.651Z,29.10
2017-09-27T11:25:23.230Z,29.60
2017-09-27T11:27:50.844Z,30.30
2017-09-27T11:30:18.378Z,30.20
2017-09-27T11:32:46.703Z,31.60
2017-09-27T11:35:14.265Z,31.50
2017-09-27T11:37:41.788Z,31.90
2017-09-27T11:40:10.208Z,31.90
2017-09-27T11:42:37.873Z,31.90
2017-09-27T11:45:05.432Z,31.90
2017-09-27T11:47:33.055Z,32.50
2017-09-27T11:50:00.655Z,32.00
2017-09-27T11:52:28.943Z,30.10
2017-09-27T11:54:56.681Z,30.10
2017-09-27T11:57:24.613Z,30.80
2017-09-27T11:59:52.239Z,31.10
2017-09-27T12:02:20.580Z,32.10
2017-09-27T12:04:48.180Z,32.10
2017-09-27T12:07:16.637Z,32.20
2017-09-27T12:09:44.286Z,32.20
2017-09-27T12:12:11.913Z,32.10
2017-09-27T12:14:39.834Z,31.50
2017-09-27T12:17:07.403Z,31.40
2017-09-27T12:19:35.170Z,31.70
2017-09-27T12:22:02.728Z,32.00
2017-09-27T12:24:30.273Z,32.30
2017-09-27T12:26:57.846Z,32.40
2017-09-27T12:29:25.429Z,32.00
2017-09-27T12:31:52.969Z,31.00
2017-09-27T12:34:20.749Z,30.40
2017-09-27T12:36:48.297Z,30.70
2017-09-27T12:39:15.873Z,30.80
2017-09-27T12:41:43.446Z,30.20
2017-09-27T12:44:11.164Z,29.70
2017-09-27T12:46:39.566Z,31.10
2017-09-27T12:49:07.101Z,31.10
2017-09-27T12:51:35.441Z,31.50
2017-09-27T12:54:02.993Z,31.50
2017-09-27T12:56:30.505Z,32.30
2017-09-27T12:58:58.937Z,32.60
2017-09-27T13:01:26.504Z,32.60
2017-09-27T13:03:54.229Z,32.10
2017-09-27T13:06:22.589Z,29.70
2017-09-27T13:08:50.287Z,29.70
2017-09-27T13:11:17.989Z,29.50
2017-09-27T13:13:46.825Z,29.60
2017-09-27T13:16:14.409Z,30.60
2017-09-27T13:18:42.732Z,31.50
2017-09-27T13:21:10.295Z,31.50
2017-09-27T13:23:37.879Z,31.50
2017-09-27T13:26:05.537Z,31.40
2017-09-27T13:28:33.136Z,30.20
2017-09-27T13:31:00.686Z,29.00
2017-09-27T13:33:28.227Z,28.10
2017-09-27T13:35:57.237Z,27.40
2017-09-27T13:38:24.785Z,26.90
2017-09-27T13:40:52.309Z,26.20
2017-09-27T13:43:21.630Z,25.00
2017-09-27T13:45:49.388Z,24.90
2017-09-27T13:48:17.702Z,24.60
2017-09-27T13:50:46.634Z,24.60
2017-09-27T13:53:14.172Z,24.60
2017-09-27T13:55:41.702Z,24.80
2017-09-27T13:58:10.020Z,24.90
2017-09-27T14:00:37.564Z,24.90
2017-09-27T14:03:05.138Z,25.00
2017-09-27T14:05:32.716Z,24.80
2017-09-27T14:08:00.323Z,24.90
2017-09-27T14:10:27.864Z,24.90
2017-09-27T14:12:59.969Z,24.80
2017-09-27T14:15:27.605Z,25.00
2017-09-27T14:17:55.155Z,26.00
2017-09-27T14:20:23.717Z,26.10
2017-09-27T14:22:51.275Z,26.90
2017-09-27T14:25:18.803Z,26.90
2017-09-27T14:27:47.132Z,27.40
2017-09-27T14:30:14.673Z,27.40
2017-09-27T14:32:42.236Z,28.20
2017-09-27T14:35:09.820Z,28.10
2017-09-27T14:37:37.407Z,28.30
2017-09-27T14:40:04.953Z,28.50
2017-09-27T14:42:32.635Z,28.90
2017-09-27T14:45:00.175Z,28.20
2017-09-27T14:47:27.766Z,26.70
2017-09-27T14:49:55.329Z,25.60
2017-09-27T14:52:22.912Z,24.60
2017-09-27T14:54:50.481Z,23.80
2017-09-27T14:57:18.043Z,22.50
2017-09-27T14:59:45.585Z,21.90
2017-09-27T15:02:13.168Z,21.40
2017-09-27T15:04:40.853Z,21.00
2017-09-27T15:07:08.423Z,20.80
2017-09-27T15:09:36.772Z,20.50
2017-09-27T15:12:04.356Z,20.40
2017-09-27T15:14:31.933Z,20.30
2017-09-27T15:17:00.257Z,20.30
2017-09-27T15:19:27.805Z,20.30
2017-09-27T15:21:55.372Z,20.10
2017-09-27T15:24:22.925Z,19.80
2017-09-27T15:26:51.296Z,19.50
2017-09-27T15:29:19.633Z,19.40
2017-09-27T15:31:47.191Z,19.40
2017-09-27T15:34:14.733Z,19.50
2017-09-27T15:36:42.410Z,19.70
2017-09-27T15:39:09.995Z,19.70
2017-09-27T15:41:37.544Z,19.50
2017-09-27T15:44:05.084Z,19.30
2017-09-27T15:46:33.518Z,18.90
2017-09-27T15:49:01.074Z,18.90
2017-09-27T15:51:28.626Z,18.70
2017-09-27T15:53:56.180Z,18.60
2017-09-27T15:56:23.717Z,18.40
2017-09-27T15:58:52.042Z,18.30
2017-09-27T16:01:19.628Z,18.20
2017-09-27T16:03:47.207Z,18.20
2017-09-27T16:06:14.754Z,18.00
2017-09-27T16:08:42.343Z,17.90
2017-09-27T16:11:09.883Z,17.80
2017-09-27T16:13:37.418Z,17.80
2017-09-27T16:16:05.058Z,17.70
2017-09-27T16:18:33.395Z,17.50
2017-09-27T16:21:00.978Z,17.50
2017-09-27T16:23:28.543Z,17.50
2017-09-27T16:25:56.097Z,17.30
2017-09-27T16:28:23.648Z,17.20
2017-09-27T16:30:52.196Z,17.00
2017-09-27T16:33:19.739Z,16.90
2017-09-27T16:35:48.073Z,16.60
2017-09-27T16:38:15.653Z,16.60
2017-09-27T16:40:43.196Z,16.40
2017-09-27T16:43:10.748Z,16.30
2017-09-27T16:45:38.338Z,16.10
2017-09-27T16:48:05.889Z,16.00
2017-09-27T16:50:33.479Z,15.90
2017-09-27T16:53:01.082Z,15.70
2017-09-27T16:55:29.415Z,15.30
2017-09-27T16:57:56.987Z,15.30
2017-09-27T17:00:24.675Z,15.20
2017-09-27T17:02:53.016Z,15.00
2017-09-27T17:05:20.547Z,14.90
2017-09-27T17:07:48.200Z,14.80
2017-09-27T17:10:15.768Z,14.70
2017-09-27T17:12:44.086Z,14.50
2017-09-27T17:15:12.637Z,14.40
2017-09-27T17:17:40.966Z,14.30
2017-09-27T17:20:08.531Z,14.30
2017-09-27T17:22:37.118Z,14.20
2017-09-27T17:25:04.728Z,14.10
2017-09-27T17:27:33.123Z,13.90
2017-09-27T17:30:01.500Z,13.80
2017-09-27T17:32:29.798Z,13.70
2017-09-27T17:34:58.183Z,13.70
2017-09-27T17:37:25.801Z,13.70
2017-09-27T17:39:53.351Z,13.60
2017-09-27T17:42:20.901Z,13.60
2017-09-27T17:44:48.578Z,13.60
2017-09-27T17:47:16.145Z,13.50
2017-09-27T17:49:43.699Z,13.40
2017-09-27T17:52:11.282Z,13.40
2017-09-27T17:54:38.816Z,13.30
2017-09-27T17:57:06.342Z,13.40
2017-09-27T17:59:34.691Z,13.10
2017-09-27T18:02:02.239Z,13.10
2017-09-27T18:04:35.451Z,13.00
2017-09-27T18:07:20.033Z,12.90
2017-09-27T18:09:56.899Z,12.80
2017-09-27T18:12:32.090Z,12.70
2017-09-27T18:15:05.440Z,12.70
2017-09-27T18:17:53.806Z,12.60
2017-09-27T18:20:21.372Z,12.60
2017-09-27T18:22:48.993Z,12.60
2017-09-27T18:25:16.559Z,12.50
2017-09-27T18:27:44.141Z,12.50
2017-09-27T18:30:11.702Z,12.40
2017-09-27T18:32:40.055Z,12.20
2017-09-27T18:35:07.622Z,12.20
2017-09-27T18:37:35.146Z,12.10
2017-09-27T18:40:02.704Z,12.10
2017-09-27T18:42:30.377Z,12.00
2017-09-27T18:44:57.948Z,12.00
2017-09-27T18:47:25.525Z,11.90
2017-09-27T18:49:54.137Z,11.90
2017-09-27T18:52:21.704Z,11.90
2017-09-27T18:54:49.301Z,11.90
2017-09-27T18:57:17.721Z,11.70
2017-09-27T18:59:47.145Z,11.70
2017-09-27T19:02:14.707Z,11.70
2017-09-27T19:04:42.339Z,11.70
2017-09-27T19:07:09.975Z,11.70
2017-09-27T19:09:51.372Z,11.70
2017-09-27T19:12:18.964Z,11.60
2017-09-27T19:14:47.313Z,11.40
2017-09-27T19:17:15.131Z,11.40
2017-09-27T19:19:42.703Z,11.40
2017-09-27T19:22:10.246Z,11.30
2017-09-27T19:24:37.862Z,11.40
2017-09-27T19:27:05.423Z,11.30
2017-09-27T19:29:32.979Z,11.20
2017-09-27T19:32:00.563Z,11.20
2017-09-27T19:34:29.910Z,11.20
2017-09-27T19:36:57.791Z,11.20
2017-09-27T19:39:26.208Z,11.20
2017-09-27T19:41:53.772Z,11.20
2017-09-27T19:44:21.385Z,11.10
2017-09-27T19:46:49.783Z,11.10
2017-09-27T19:49:17.397Z,11.10
2017-09-27T19:51:44.973Z,11.00
2017-09-27T19:54:12.594Z,11.00
2017-09-27T19:56:40.148Z,10.90
2017-09-27T19:59:07.829Z,10.90
2017-09-27T20:01:35.398Z,10.80
2017-09-27T20:04:02.974Z,10.80
2017-09-27T20:06:30.616Z,10.80
2017-09-27T20:08:58.200Z,10.70
2017-09-27T20:11:25.774Z,10.70
2017-09-27T20:13:53.373Z,10.60
2017-09-27T20:16:21.718Z,10.60
2017-09-27T20:18:49.275Z,10.60
2017-09-27T20:21:17.773Z,10.60
2017-09-27T20:23:45.395Z,10.60
2017-09-27T20:26:13.003Z,10.50
2017-09-27T20:28:40.615Z,10.40
2017-09-27T20:31:08.977Z,10.40
2017-09-27T20:33:36.536Z,10.30
2017-09-27T20:36:04.117Z,10.40
2017-09-27T20:38:31.693Z,10.40
2017-09-27T20:41:00.012Z,10.40
2017-09-27T20:43:27.593Z,10.30
2017-09-27T20:45:55.207Z,10.30
2017-09-27T20:48:22.813Z,10.30
2017-09-27T20:50:50.404Z,10.20
2017-09-27T20:53:17.945Z,10.20
2017-09-27T20:55:45.484Z,10.20
2017-09-27T20:58:13.622Z,10.20
2017-09-27T21:00:41.192Z,10.20
2017-09-27T21:03:09.558Z,10.10
2017-09-27T21:05:37.136Z,10.10
2017-09-27T21:08:04.693Z,10.00
2017-09-27T21:10:32.291Z,10.10
2017-09-27T21:12:59.864Z,10.00
2017-09-27T21:15:28.065Z,10.00
2017-09-27T21:17:55.718Z,9.90
2017-09-27T21:20:23.319Z,9.90
2017-09-27T21:22:50.953Z,9.90
2017-09-27T21:25:18.558Z,9.90
2017-09-27T21:27:46.127Z,9.80
2017-09-27T21:30:13.781Z,9.80
2017-09-27T21:32:41.512Z,9.80
2017-09-27T21:35:09.111Z,9.70
2017-09-27T21:37:36.713Z,9.60
2017-09-27T21:40:05.080Z,9.50
2017-09-27T21:42:32.691Z,9.50
2017-09-27T21:45:00.286Z,9.50
2017-09-27T21:47:29.082Z,9.60
2017-09-27T21:49:57.016Z,9.60
2017-09-27T21:52:24.850Z,9.50
2017-09-27T21:54:54.393Z,9.50
2017-09-27T21:57:22.297Z,9.50
2017-09-27T21:59:50.008Z,9.50
2017-09-27T22:02:17.974Z,9.50
2017-09-27T22:04:46.290Z,9.40
2017-09-27T22:07:13.951Z,9.40
2017-09-27T22:09:42.306Z,9.60
2017-09-27T22:12:09.851Z,9.60
2017-09-27T22:14:38.465Z,9.60
2017-09-27T22:17:06.191Z,9.60
2017-09-27T22:19:33.751Z,9.60
2017-09-27T22:22:01.310Z,9.60
2017-09-27T22:24:28.834Z,9.60
2017-09-27T22:26:57.118Z,9.70
2017-09-27T22:29:25.436Z,9.60
2017-09-27T22:31:52.966Z,9.60
2017-09-27T22:34:21.463Z,9.60
2017-09-27T22:36:49.045Z,9.50
2017-09-27T22:39:24.682Z,9.50
2017-09-27T22:41:52.240Z,9.50
2017-09-27T22:44:20.540Z,9.50
2017-09-27T22:46:48.073Z,9.50
2017-09-27T22:49:16.406Z,9.50
2017-09-27T22:51:43.929Z,9.50
2017-09-27T22:54:11.447Z,9.60
2017-09-27T22:56:38.998Z,9.60
2017-09-27T22:59:06.551Z,9.70
2017-09-27T23:01:34.081Z,9.70
2017-09-27T23:04:03.413Z,9.60
2017-09-27T23:06:30.933Z,9.50
2017-09-27T23:08:58.464Z,9.60
2017-09-27T23:11:26.016Z,9.60
2017-09-27T23:13:53.580Z,9.50
2017-09-27T23:16:21.119Z,9.40
2017-09-27T23:18:48.690Z,9.40
2017-09-27T23:21:16.243Z,9.40
2017-09-27T23:23:44.536Z,9.40
2017-09-27T23:26:12.138Z,9.40
2017-09-27T23:28:39.672Z,9.30
2017-09-27T23:31:07.228Z,9.40
2017-09-27T23:33:34.809Z,9.40
2017-09-27T23:36:02.364Z,9.50
2017-09-27T23:38:29.912Z,9.60
2017-09-27T23:40:58.420Z,9.60
2017-09-27T23:43:25.957Z,9.50
2017-09-27T23:45:54.254Z,9.40
2017-09-27T23:48:21.811Z,9.40
2017-09-27T23:50:50.106Z,9.30
2017-09-27T23:53:17.635Z,9.30
2017-09-27T23:55:45.963Z,9.40
2017-09-27T23:58:13.499Z,9.40
